Time;durP1;ratioP1;P1;durP2;ratioP2;P2;SDS_P1;SDS_P2;PMS_P1;PMS_P2;Temp;Humidity;BMP_temperature;BMP_pressure;BME280_temperature;BME280_humidity;BME280_pressure;Samples;Min_cycle;Max_cycle;Signal;HPM_P1;HPM_P2
2021/03/16 00:00:44;;;;;;;16.80;10.10;;;;;;;27.99;32.34;158518.31;1699628;84;21196;-75
2021/03/16 00:03:35;;;;;;;17.02;9.83;;;;;;;28.16;32.17;158562.20;1682008;84;21192;-77
2021/03/16 00:06:11;;;;;;;17.50;10.53;;;;;;;28.17;32.08;158566.23;1674181;85;21233;-78
2021/03/16 00:08:44;;;;;;;17.90;10.10;;;;;;;28.20;31.94;158572.86;1673459;86;21375;-76
2021/03/16 00:11:16;;;;;;;20.12;11.53;;;;;;;28.17;31.93;158566.23;1678184;84;21390;-75
2021/03/16 00:13:50;;;;;;;19.90;11.00;;;;;;;28.21;31.93;158575.53;1677044;85;21327;-75
2021/03/16 00:16:25;;;;;;;19.60;10.40;;;;;;;28.25;31.89;158586.19;1678174;85;21386;-75
2021/03/16 00:18:57;;;;;;;19.35;11.20;;;;;;;28.24;31.89;158584.87;1678169;85;21327;-74
2021/03/16 00:21:29;;;;;;;21.90;11.38;;;;;;;28.21;31.79;158576.84;1678132;85;21312;-77
2021/03/16 00:24:02;;;;;;;18.05;10.55;;;;;;;28.20;31.56;158572.86;1677972;85;21229;-75
2021/03/16 00:26:34;;;;;;;17.77;11.05;;;;;;;27.78;32.03;158462.45;1668311;85;21327;-74
2021/03/16 00:29:06;;;;;;;18.48;10.75;;;;;;;27.92;31.97;158499.70;1664573;84;21316;-74
2021/03/16 00:31:39;;;;;;;18.75;10.28;;;;;;;27.91;32.05;158495.69;1638827;84;21239;-78
2021/03/16 00:34:12;;;;;;;20.52;10.43;;;;;;;27.57;32.26;158406.56;1672571;84;21682;-75
2021/03/16 00:36:45;;;;;;;18.82;10.20;;;;;;;27.77;32.19;158459.78;1710448;84;21712;-74
2021/03/16 00:39:17;;;;;;;17.98;10.93;;;;;;;28.12;31.81;158551.59;1702345;84;21839;-74
2021/03/16 00:41:49;;;;;;;18.00;10.63;;;;;;;27.66;32.22;158430.53;1670163;84;21314;-75
2021/03/16 00:44:22;;;;;;;18.32;10.75;;;;;;;27.74;32.16;158450.50;1635863;84;21220;-74
2021/03/16 00:47:01;;;;;;;19.52;11.00;;;;;;;27.72;32.10;158446.47;1635363;88;21711;-74
2021/03/16 00:49:34;;;;;;;18.07;10.25;;;;;;;27.69;32.10;158438.53;1711925;83;21372;-74
2021/03/16 00:52:07;;;;;;;16.00;10.03;;;;;;;27.70;32.07;158439.83;1716988;83;21238;-74
2021/03/16 00:54:39;;;;;;;19.75;10.75;;;;;;;27.68;31.95;158435.86;1688807;83;21317;-75
2021/03/16 00:57:12;;;;;;;16.90;10.30;;;;;;;27.65;31.98;158426.56;1667137;83;21163;-74
2021/03/16 00:59:44;;;;;;;19.15;11.00;;;;;;;27.73;31.95;158447.83;1703526;83;21329;-75
2021/03/16 01:02:19;;;;;;;18.15;10.18;;;;;;;27.65;31.97;158426.56;1667871;83;21840;-75
2021/03/16 01:04:51;;;;;;;17.75;10.10;;;;;;;27.64;31.96;158423.91;1724687;83;21384;-75
2021/03/16 01:07:24;;;;;;;17.65;11.15;;;;;;;27.67;31.89;158433.20;1707372;83;21223;-76
2021/03/16 01:09:57;;;;;;;20.45;11.28;;;;;;;27.66;31.81;158429.22;1702000;83;21219;-75
2021/03/16 01:12:29;;;;;;;17.75;10.60;;;;;;;27.56;31.88;158402.53;1716135;83;21805;-74
2021/03/16 01:15:01;;;;;;;19.57;11.05;;;;;;;27.69;31.73;158437.17;1673870;83;21231;-75
2021/03/16 01:17:57;;;;;;;18.82;10.48;;;;;;;27.70;31.62;158439.83;1673787;83;21385;-75
2021/03/16 01:20:30;;;;;;;19.02;11.00;;;;;;;27.35;31.88;158345.41;1673769;83;21410;-75
2021/03/16 01:23:02;;;;;;;20.23;10.63;;;;;;;27.14;32.02;158290.88;1691650;83;21400;-76
2021/03/16 01:25:34;;;;;;;18.50;10.60;;;;;;;27.11;32.10;158282.89;1711967;83;21238;-74
2021/03/16 01:28:07;;;;;;;17.35;10.28;;;;;;;27.10;32.12;158278.92;1718923;81;21300;-74
2021/03/16 01:30:39;;;;;;;18.85;11.08;;;;;;;27.08;32.17;158273.59;1769759;80;21297;-75
2021/03/16 01:33:13;;;;;;;20.45;10.98;;;;;;;27.08;32.16;158274.89;1754129;81;21289;-74
2021/03/16 01:35:45;;;;;;;17.60;10.85;;;;;;;26.88;32.29;158221.69;1724828;83;21185;-77
2021/03/16 01:38:17;;;;;;;20.02;11.33;;;;;;;26.88;32.31;158221.69;1730612;81;21154;-75
2021/03/16 01:40:50;;;;;;;18.92;11.15;;;;;;;26.86;32.31;158215.06;1724870;83;21162;-75
2021/03/16 01:43:26;;;;;;;17.30;10.18;;;;;;;26.77;32.32;158192.47;1749456;81;21135;-77
2021/03/16 01:45:58;;;;;;;19.15;10.30;;;;;;;26.69;32.43;158171.20;1731241;81;21171;-75
2021/03/16 01:48:33;;;;;;;16.60;10.05;;;;;;;26.78;32.37;158193.81;1769951;81;21360;-75
2021/03/16 01:51:08;;;;;;;16.95;10.43;;;;;;;26.85;32.30;158212.41;1762633;81;21823;-75
2021/03/16 01:53:44;;;;;;;19.05;9.80;;;;;;;26.94;32.15;158237.67;1745847;81;21186;-75
2021/03/16 01:56:18;;;;;;;18.17;11.18;;;;;;;26.87;32.18;158219.03;1721816;82;21181;-76
2021/03/16 01:59:08;;;;;;;20.37;10.78;;;;;;;26.84;32.15;158209.73;1716468;83;21194;-75
2021/03/16 02:01:58;;;;;;;16.23;9.30;;;;;;;26.81;32.13;158203.11;1669727;83;21232;-75
2021/03/16 02:04:48;;;;;;;17.92;10.15;;;;;;;26.83;32.06;158207.08;1690134;84;21321;-74
2021/03/16 02:07:49;;;;;;;21.23;11.40;;;;;;;26.63;32.27;158153.94;1696898;83;21820;-74
2021/03/16 02:11:05;;;;;;;20.82;11.33;;;;;;;26.70;32.21;158172.52;1717500;82;21673;-75
2021/03/16 02:14:08;;;;;;;18.87;10.23;;;;;;;26.80;32.08;158199.09;1714227;83;21387;-74
2021/03/16 02:17:10;;;;;;;25.00;11.70;;;;;;;26.64;32.16;158156.59;1712428;84;21305;-74
2021/03/16 02:20:56;;;;;;;24.23;11.55;;;;;;;26.62;32.19;158151.27;1711255;83;21249;-74
2021/03/16 02:24:08;;;;;;;18.67;10.60;;;;;;;26.55;32.20;158132.69;1678318;85;21329;-77
2021/03/16 02:27:18;;;;;;;21.50;11.40;;;;;;;26.54;32.03;158131.34;1685423;85;21186;-75
2021/03/16 02:30:09;;;;;;;23.00;11.38;;;;;;;26.53;31.94;158126.00;1691016;83;21344;-74
2021/03/16 02:33:00;;;;;;;17.27;10.05;;;;;;;26.48;31.90;158114.06;1659570;85;21194;-77
2021/03/16 02:35:50;;;;;;;22.37;12.17;;;;;;;26.49;31.84;158115.41;1690327;85;21855;-75
2021/03/16 02:38:47;;;;;;;22.32;11.95;;;;;;;26.53;31.86;158128.67;1664893;84;21332;-74
2021/03/16 02:41:40;;;;;;;21.45;10.88;;;;;;;26.56;31.75;158136.66;1701959;83;21218;-74
2021/03/16 02:44:30;;;;;;;20.43;10.20;;;;;;;26.48;31.80;158112.75;1659983;86;21233;-74
2021/03/16 02:47:21;;;;;;;17.73;10.53;;;;;;;26.35;31.94;158079.45;1692978;85;21194;-74
2021/03/16 02:50:12;;;;;;;19.23;10.10;;;;;;;26.30;31.90;158064.84;1683905;85;21337;-74
2021/03/16 02:53:04;;;;;;;21.62;10.98;;;;;;;26.16;31.96;158027.64;1684015;85;21175;-74
2021/03/16 02:55:55;;;;;;;17.87;10.10;;;;;;;26.13;31.95;158019.70;1728635;82;21780;-75
2021/03/16 02:58:47;;;;;;;15.80;9.65;;;;;;;26.04;31.99;157995.81;1746191;82;21235;-74
2021/03/16 03:01:38;;;;;;;19.98;10.68;;;;;;;25.90;32.06;157959.92;1732062;82;21339;-75
2021/03/16 03:04:28;;;;;;;16.15;10.15;;;;;;;25.87;32.05;157951.94;1723083;83;21327;-74
2021/03/16 03:07:18;;;;;;;14.87;9.15;;;;;;;25.88;31.97;157954.59;1723131;83;21181;-74
2021/03/16 03:10:09;;;;;;;15.95;9.78;;;;;;;25.90;31.91;157958.61;1723109;83;21324;-74
2021/03/16 03:12:59;;;;;;;15.63;8.68;;;;;;;25.90;31.82;157958.61;1714807;83;21166;-75
2021/03/16 03:15:49;;;;;;;16.93;9.38;;;;;;;25.82;31.82;157938.69;1685812;85;21245;-74
2021/03/16 03:18:40;;;;;;;;;;;;;;;25.80;31.80;157933.36;1701085;83;21320;-74
2021/03/16 03:21:43;;;;;;;17.98;9.33;;;;;;;25.83;31.72;157939.98;1714726;83;20295;-73
2021/03/16 03:24:37;;;;;;;16.87;9.55;;;;;;;25.90;31.57;157958.61;1687808;83;21170;-74
2021/03/16 03:27:37;;;;;;;18.95;9.60;;;;;;;25.82;31.61;157938.69;1690208;83;21304;-74
2021/03/16 03:30:27;;;;;;;18.85;9.98;;;;;;;25.75;31.60;157920.02;1689574;82;21691;-75
2021/03/16 03:33:19;;;;;;;16.20;9.10;;;;;;;25.61;31.69;157881.52;1713564;84;21238;-74
2021/03/16 03:36:09;;;;;;;21.48;10.23;;;;;;;25.49;31.69;157848.34;1710998;84;21325;-74
2021/03/16 03:38:59;;;;;;;16.95;9.10;;;;;;;25.41;31.79;157827.06;1687658;85;21180;-74
2021/03/16 03:41:51;;;;;;;15.78;9.70;;;;;;;25.45;31.75;157837.70;1701365;83;21309;-74
2021/03/16 03:44:42;;;;;;;17.40;8.93;;;;;;;25.43;31.79;157833.75;1719870;83;21351;-73
2021/03/16 03:47:31;;;;;;;15.68;8.80;;;;;;;25.51;31.65;157854.97;1719312;83;21694;-73
2021/03/16 03:50:22;;;;;;;16.80;9.70;;;;;;;25.63;31.51;157886.83;1719150;83;21827;-73
2021/03/16 03:53:12;;;;;;;20.05;9.90;;;;;;;25.64;31.48;157889.50;1702666;83;21308;-74
2021/03/16 03:56:02;;;;;;;22.85;10.55;;;;;;;25.71;31.46;157909.42;1657456;86;21186;-74
2021/03/16 03:58:52;;;;;;;18.17;9.73;;;;;;;25.79;31.32;157929.41;1696185;84;21308;-73
2021/03/16 04:01:42;;;;;;;19.73;10.25;;;;;;;25.71;31.41;157908.06;1696172;83;21227;-74
2021/03/16 04:04:32;;;;;;;15.83;8.65;;;;;;;25.74;31.35;157917.41;1687355;85;21181;-74
2021/03/16 04:07:22;;;;;;;19.35;10.23;;;;;;;25.71;31.32;157908.06;1717239;82;21337;-74
2021/03/16 04:10:13;;;;;;;18.12;10.05;;;;;;;25.75;31.27;157920.02;1715530;83;21838;-74
2021/03/16 04:13:06;;;;;;;20.05;9.25;;;;;;;25.60;31.36;157880.22;1706318;83;21318;-74
2021/03/16 04:15:56;;;;;;;18.57;10.18;;;;;;;25.59;31.36;157876.19;1750444;81;21707;-73
2021/03/16 04:18:48;;;;;;;21.60;10.82;;;;;;;25.63;31.30;157888.14;1718132;83;21209;-73
2021/03/16 04:21:38;;;;;;;19.87;8.98;;;;;;;25.57;31.31;157870.94;1722678;83;21179;-73
2021/03/16 04:24:28;;;;;;;20.08;10.60;;;;;;;25.52;31.38;157857.63;1729121;83;21361;-72
2021/03/16 04:27:18;;;;;;;21.48;10.58;;;;;;;25.46;31.43;157841.72;1730453;83;21305;-73
2021/03/16 04:30:09;;;;;;;23.62;9.93;;;;;;;25.54;31.37;157862.94;1730757;83;21183;-74
2021/03/16 04:32:58;;;;;;;18.92;9.05;;;;;;;25.52;31.33;157857.63;1737093;81;21331;-72
2021/03/16 04:35:49;;;;;;;20.90;9.30;;;;;;;25.45;31.39;157839.06;1729735;81;21177;-75
2021/03/16 04:38:39;;;;;;;20.97;9.95;;;;;;;25.45;31.39;157839.06;1730496;83;21846;-74
2021/03/16 04:41:29;;;;;;;20.30;9.65;;;;;;;25.44;31.33;157836.41;1730545;83;21348;-73
2021/03/16 04:44:19;;;;;;;18.70;9.67;;;;;;;25.27;31.56;157791.25;1726811;83;21328;-74
2021/03/16 04:47:10;;;;;;;19.42;10.88;;;;;;;25.25;31.52;157784.63;1693506;83;21322;-75
2021/03/16 04:50:00;;;;;;;19.40;10.10;;;;;;;25.18;31.68;157767.36;1683317;85;21251;-74
2021/03/16 04:52:52;;;;;;;21.68;10.78;;;;;;;25.13;31.74;157752.77;1688452;84;21814;-79
2021/03/16 04:55:41;;;;;;;20.12;10.48;;;;;;;25.22;31.71;157778.00;1729109;82;21310;-78
2021/03/16 04:58:32;;;;;;;23.52;11.75;;;;;;;25.32;31.69;157804.55;1668677;83;21279;-78
2021/03/16 05:01:28;;;;;;;21.52;10.58;;;;;;;25.35;31.67;157812.47;1663133;83;21390;-75
2021/03/16 05:04:18;;;;;;;;;;;;;;;25.45;31.60;157837.70;1665037;83;21322;-77
2021/03/16 05:07:08;;;;;;;30.20;11.05;;;;;;;25.50;31.55;157852.31;1667917;84;20187;-77
2021/03/16 05:10:00;;;;;;;28.07;12.30;;;;;;;25.53;31.48;157860.28;1720054;81;21828;-78
2021/03/16 05:12:50;;;;;;;18.50;10.50;;;;;;;25.56;31.46;157868.27;1717881;81;21849;-75
2021/03/16 05:15:41;;;;;;;23.50;11.45;;;;;;;25.57;31.52;157869.56;1725292;81;21227;-75
2021/03/16 05:18:32;;;;;;;19.50;9.80;;;;;;;25.62;31.49;157885.53;1679211;83;21272;-76
2021/03/16 05:21:22;;;;;;;21.57;10.08;;;;;;;25.67;31.48;157898.78;1667320;84;21330;-78
2021/03/16 05:24:13;;;;;;;;;;;;;;;25.72;31.44;157910.72;1690333;83;21336;-84
2021/03/16 05:27:03;;;;;;;17.77;9.50;;;;;;;25.85;31.35;157945.31;1655471;84;20258;-76
2021/03/16 05:29:54;;;;;;;23.18;9.93;;;;;;;25.95;31.31;157973.22;1671021;83;21720;-75
2021/03/16 05:32:46;;;;;;;17.32;9.18;;;;;;;25.98;31.34;157979.84;1638732;84;21383;-77
2021/03/16 05:35:36;;;;;;;18.57;9.78;;;;;;;25.89;31.44;157955.95;1663684;83;21927;-78
2021/03/16 05:38:27;;;;;;;18.20;9.70;;;;;;;26.13;31.23;158019.70;1665394;85;21338;-78
2021/03/16 05:41:17;;;;;;;19.25;10.35;;;;;;;26.25;31.15;158052.89;1670893;83;21265;-78
2021/03/16 05:44:08;;;;;;;20.50;9.93;;;;;;;26.09;31.21;158010.42;1681914;83;21364;-73
2021/03/16 05:46:58;;;;;;;;;;;;;;;26.07;31.25;158005.09;1673227;83;21438;-80
2021/03/16 05:49:50;;;;;;;16.23;8.58;;;;;;;26.00;31.37;157985.16;1664352;84;20340;-81
2021/03/16 05:52:40;;;;;;;22.37;11.20;;;;;;;26.12;31.24;158017.05;1651459;84;21258;-85
2021/03/16 05:55:30;;;;;;;20.35;12.10;;;;;;;26.15;31.28;158026.33;1641741;85;21203;-79
2021/03/16 05:58:20;;;;;;;25.92;16.73;;;;;;;26.30;31.29;158066.20;1713498;81;21380;-78
2021/03/16 06:01:13;;;;;;;20.60;11.90;;;;;;;26.38;31.40;158086.13;1677565;83;21866;-75
2021/03/16 06:04:05;;;;;;;22.05;10.35;;;;;;;26.49;31.15;158116.72;1668732;83;21342;-75
2021/03/16 06:06:57;;;;;;;20.80;12.70;;;;;;;26.57;30.89;158137.95;1680650;83;21439;-79
2021/03/16 06:09:50;;;;;;;62.88;37.53;;;;;;;26.65;30.99;158159.25;1665750;83;21236;-77
2021/03/16 06:12:41;;;;;;;21.33;10.82;;;;;;;26.78;30.92;158193.81;1621719;86;21203;-77
2021/03/16 06:15:33;;;;;;;23.42;14.93;;;;;;;26.82;30.94;158204.41;1638718;85;21832;-79
2021/03/16 06:18:28;;;;;;;104.23;66.70;;;;;;;26.75;31.06;158185.83;1654475;85;21884;-81
2021/03/16 06:21:23;;;;;;;46.65;28.80;;;;;;;26.93;30.79;158233.66;1654586;87;21364;-77
2021/03/16 06:24:14;;;;;;;22.48;13.10;;;;;;;26.77;30.93;158191.16;1641236;85;21184;-75
2021/03/16 06:27:04;;;;;;;19.60;9.68;;;;;;;27.04;30.75;158264.30;1633995;85;21230;-75
2021/03/16 06:29:56;;;;;;;17.20;9.13;;;;;;;27.18;30.66;158301.53;1640437;85;21212;-77
2021/03/16 06:32:47;;;;;;;18.90;8.98;;;;;;;27.15;30.89;158292.19;1635567;85;21231;-77
2021/03/16 06:35:37;;;;;;;;;;;;;;;27.24;30.90;158316.16;1637383;85;21883;-75
2021/03/16 06:38:27;;;;;;;14.73;8.45;;;;;;;27.33;30.90;158340.06;1607117;87;20276;-75
2021/03/16 06:41:19;;;;;;;18.87;8.50;;;;;;;27.37;30.69;158352.03;1632532;86;21280;-76
2021/03/16 06:44:09;;;;;;;15.35;7.92;;;;;;;27.12;30.64;158284.25;1635059;85;21261;-76
2021/03/16 06:47:02;;;;;;;17.17;7.97;;;;;;;27.02;30.76;158258.97;1635107;85;21182;-75
2021/03/16 06:49:52;;;;;;;21.52;7.95;;;;;;;26.97;30.88;158245.59;1611923;86;21401;-78
2021/03/16 06:52:53;;;;;;;19.32;7.65;;;;;;;26.89;31.15;158224.36;1662703;83;21180;-75
2021/03/16 06:55:59;;;;;;;19.50;8.83;;;;;;;27.18;31.16;158300.17;1672652;83;21208;-74
2021/03/16 06:58:50;;;;;;;15.90;8.70;;;;;;;27.47;30.73;158378.61;1665901;84;21342;-73
2021/03/16 07:01:41;;;;;;;15.50;8.13;;;;;;;27.51;30.55;158389.27;1665495;83;21927;-72
2021/03/16 07:04:33;;;;;;;14.40;7.97;;;;;;;27.43;30.74;158367.95;1663375;83;21357;-73
2021/03/16 07:07:23;;;;;;;14.98;7.75;;;;;;;27.63;30.77;158421.19;1661762;83;21726;-73
2021/03/16 07:10:14;;;;;;;14.63;8.38;;;;;;;27.74;30.78;158451.80;1654639;83;21751;-73
2021/03/16 07:13:05;;;;;;;17.23;8.70;;;;;;;27.82;30.70;158473.11;1723628;81;21293;-72
2021/03/16 07:15:57;;;;;;;13.18;7.90;;;;;;;27.91;30.64;158497.05;1680015;84;21846;-72
2021/03/16 07:18:48;;;;;;;19.23;9.60;;;;;;;28.08;30.67;158542.25;1678189;84;21382;-72
2021/03/16 07:21:54;;;;;;;12.98;7.55;;;;;;;28.29;30.81;158596.84;1653027;85;21219;-71
2021/03/16 07:24:44;;;;;;;17.15;8.98;;;;;;;28.29;30.81;158596.84;1713061;82;21320;-72
2021/03/16 07:27:35;;;;;;;16.80;8.23;;;;;;;28.34;30.57;158611.48;1717861;81;21330;-70
2021/03/16 07:30:25;;;;;;;11.43;7.47;;;;;;;28.41;30.13;158630.14;1717510;81;21163;-73
2021/03/16 07:33:16;;;;;;;12.88;7.55;;;;;;;28.41;30.32;158630.14;1675470;84;21343;-74
2021/03/16 07:36:06;;;;;;;15.88;8.00;;;;;;;28.45;30.44;158640.75;1651760;84;21255;-75
2021/03/16 07:38:58;;;;;;;17.65;7.60;;;;;;;28.53;30.42;158662.03;1713731;81;21364;-74
2021/03/16 07:41:49;;;;;;;14.93;8.88;;;;;;;28.49;30.48;158651.42;1711406;81;21884;-73
2021/03/16 07:44:45;;;;;;;16.73;9.00;;;;;;;28.63;30.25;158690.00;1716348;81;21209;-72
2021/03/16 07:47:37;;;;;;;14.05;7.75;;;;;;;28.75;30.49;158721.94;1710380;82;21198;-73
2021/03/16 07:50:30;;;;;;;16.80;7.92;;;;;;;28.93;30.41;158768.58;1669897;84;21362;-73
2021/03/16 07:53:30;;;;;;;15.13;7.75;;;;;;;29.05;30.00;158801.84;1650275;84;21197;-73
2021/03/16 07:56:26;;;;;;;13.35;7.75;;;;;;;29.21;29.95;158844.47;1713848;81;21179;-73
2021/03/16 07:59:21;;;;;;;18.92;8.58;;;;;;;29.10;30.07;158815.17;1717347;81;21855;-73
2021/03/16 08:02:11;;;;;;;16.32;8.43;;;;;;;29.19;30.02;158839.13;1719823;81;21233;-76
2021/03/16 08:05:02;;;;;;;16.97;8.55;;;;;;;29.24;29.93;158852.47;1714967;81;21365;-74
2021/03/16 08:07:53;;;;;;;15.78;8.93;;;;;;;29.15;29.90;158828.52;1714041;81;21325;-73
2021/03/16 08:10:44;;;;;;;24.37;10.35;;;;;;;29.05;30.03;158801.84;1676670;83;21386;-75
2021/03/16 08:13:34;;;;;;;19.82;8.75;;;;;;;29.05;30.12;158800.53;1708888;81;21214;-80
2021/03/16 08:16:45;;;;;;;;;;;;;;;29.14;30.30;158824.48;1720180;82;21222;-83
2021/03/16 08:19:39;;;;;;;15.50;7.70;;;;;;;29.17;30.40;158833.80;1702936;82;20328;-80
2021/03/16 08:22:31;;;;;;;14.15;7.60;;;;;;;29.25;30.53;158855.12;1718020;81;21347;-81
2021/03/16 08:25:22;;;;;;;16.62;7.90;;;;;;;29.34;30.29;158880.39;1714835;82;21749;-80
2021/03/16 08:28:15;;;;;;;13.68;8.10;;;;;;;29.42;30.42;158900.44;1713229;81;21749;-82
2021/03/16 08:31:06;;;;;;;17.55;7.47;;;;;;;29.57;30.49;158941.70;1678341;83;21197;-80
2021/03/16 08:33:56;;;;;;;14.73;7.57;;;;;;;29.75;30.21;158988.31;1663069;83;21375;-80
2021/03/16 08:36:46;;;;;;;13.95;8.25;;;;;;;30.08;30.18;159077.64;1714462;81;21876;-80
2021/03/16 08:39:37;;;;;;;;;;;;;;;30.95;29.41;159309.61;1718164;81;21178;-81
2021/03/16 08:42:28;;;;;;;15.32;7.95;;;;;;;32.55;28.78;159740.58;1714028;81;20994;-81
2021/03/16 08:45:32;;;;;;;14.18;8.00;;;;;;;33.33;28.05;159948.98;1716658;81;21811;-80
2021/03/16 08:48:33;;;;;;;14.95;7.42;;;;;;;33.25;27.65;159928.94;1682843;84;21764;-78
2021/03/16 08:51:27;;;;;;;12.68;7.58;;;;;;;32.71;27.61;159783.36;1658436;84;21204;-79
2021/03/16 08:54:27;;;;;;;16.45;8.53;;;;;;;32.70;27.73;159780.69;1710694;82;21709;-79
2021/03/16 08:57:23;;;;;;;16.80;7.83;;;;;;;33.53;27.81;160002.39;1677516;83;21281;-77
2021/03/16 09:00:15;;;;;;;19.25;9.33;;;;;;;34.62;27.13;160296.45;1670499;84;21839;-78
2021/03/16 09:03:06;;;;;;;13.62;8.10;;;;;;;35.24;26.60;160463.61;1647935;85;21232;-77
2021/03/16 09:05:57;;;;;;;15.75;7.75;;;;;;;35.82;26.21;160617.50;1712893;81;21437;-78
2021/03/16 09:08:54;;;;;;;11.22;7.10;;;;;;;36.54;25.07;160811.59;1714664;81;21198;-78
2021/03/16 09:11:46;;;;;;;15.18;8.53;;;;;;;36.13;25.12;160703.16;1725966;81;21353;-77
2021/03/16 09:14:36;;;;;;;19.77;10.23;;;;;;;35.33;25.46;160487.72;1685629;82;21200;-78
2021/03/16 09:17:26;;;;;;;15.48;10.00;;;;;;;35.38;25.64;160499.75;1681870;83;21362;-78
2021/03/16 09:20:32;;;;;;;15.50;8.03;;;;;;;36.36;25.52;160764.69;1664652;83;21353;-78
2021/03/16 09:23:22;;;;;;;13.25;8.13;;;;;;;36.49;25.29;160798.23;1666774;83;21458;-78
2021/03/16 09:26:12;;;;;;;16.03;8.07;;;;;;;35.76;25.28;160602.78;1654855;84;21324;-77
2021/03/16 09:29:02;;;;;;;14.28;7.28;;;;;;;34.97;25.61;160390.03;1670354;84;21342;-78
2021/03/16 09:31:53;;;;;;;19.50;8.40;;;;;;;34.43;25.90;160245.63;1659322;84;21195;-77
2021/03/16 09:34:47;;;;;;;13.23;6.87;;;;;;;33.90;26.24;160102.61;1680332;83;21192;-77
2021/03/16 09:37:46;;;;;;;11.68;6.58;;;;;;;33.55;26.58;160007.73;1649202;84;21392;-76
2021/03/16 09:40:36;;;;;;;12.03;7.67;;;;;;;33.26;26.77;159931.63;1651361;84;21302;-76
2021/03/16 09:43:32;;;;;;;13.38;7.25;;;;;;;33.00;27.00;159860.77;1662318;83;21342;-78
2021/03/16 09:46:08;;;;;;;18.57;10.95;;;;;;;32.85;27.15;159819.37;1659728;84;21169;-78
2021/03/16 09:48:48;;;;;;;15.90;9.48;;;;;;;32.76;27.39;159796.69;1688267;83;21338;-79
2021/03/16 09:51:23;;;;;;;18.23;10.05;;;;;;;32.69;27.28;159776.70;1637390;84;21717;-78
2021/03/16 09:53:59;;;;;;;14.83;8.93;;;;;;;32.31;27.62;159676.52;1659498;85;21398;-78
2021/03/16 09:56:33;;;;;;;15.55;9.23;;;;;;;32.27;27.70;159664.52;1669613;83;21845;-79
2021/03/16 09:59:06;;;;;;;19.12;10.88;;;;;;;32.34;27.69;159684.53;1664509;83;21223;-79
2021/03/16 10:01:41;;;;;;;13.25;8.45;;;;;;;32.41;27.68;159703.19;1679549;83;21356;-77
2021/03/16 10:04:15;;;;;;;14.85;9.38;;;;;;;32.53;27.49;159733.92;1671821;83;21208;-77
2021/03/16 10:06:48;;;;;;;16.67;9.75;;;;;;;32.53;27.19;159735.23;1638780;84;21225;-77
2021/03/16 10:09:22;;;;;;;20.15;9.68;;;;;;;32.56;27.18;159743.25;1622533;86;21877;-78
2021/03/16 10:11:55;;;;;;;15.72;8.98;;;;;;;32.78;26.93;159800.72;1718882;81;21371;-78
2021/03/16 10:14:30;;;;;;;15.15;8.15;;;;;;;33.03;26.97;159867.47;1716783;81;21202;-76
2021/03/16 10:17:03;;;;;;;13.62;8.40;;;;;;;33.49;27.01;159991.69;1714170;81;21186;-77
2021/03/16 10:19:39;;;;;;;16.00;6.92;;;;;;;34.60;26.50;160291.16;1729781;81;21302;-76
2021/03/16 10:22:13;;;;;;;15.50;7.70;;;;;;;36.14;25.64;160704.52;1677275;83;21731;-76
2021/03/16 10:24:48;;;;;;;12.18;7.45;;;;;;;38.07;24.75;161224.17;1658766;85;21416;-77
2021/03/16 10:27:29;;;;;;;10.85;6.80;;;;;;;39.67;23.68;161654.66;1638042;85;21373;-76
2021/03/16 10:30:11;;;;;;;14.63;7.10;;;;;;;41.08;22.76;162035.86;1680888;83;21381;-75
2021/03/16 10:32:44;;;;;;;16.60;7.17;;;;;;;41.99;21.57;162281.67;1638218;84;21246;-75
2021/03/16 10:35:16;;;;;;;11.15;6.65;;;;;;;42.50;21.50;162420.08;1660669;84;21377;-77
2021/03/16 10:37:49;;;;;;;9.40;6.55;;;;;;;42.65;21.30;162460.39;1655693;84;21876;-77
2021/03/16 10:40:22;;;;;;;14.23;7.30;;;;;;;42.57;21.24;162437.55;1680137;83;21177;-77
2021/03/16 10:42:54;;;;;;;11.55;7.22;;;;;;;42.52;21.17;162425.45;1722432;81;21194;-77
2021/03/16 10:45:27;;;;;;;9.10;6.33;;;;;;;42.22;21.12;162344.83;1722592;81;21241;-77
2021/03/16 10:48:00;;;;;;;10.32;6.25;;;;;;;41.86;21.36;162245.37;1713176;81;21848;-76
2021/03/16 10:50:33;;;;;;;12.53;6.42;;;;;;;41.77;21.33;162221.22;1709194;82;21193;-76
2021/03/16 10:53:05;;;;;;;8.75;5.90;;;;;;;41.75;21.38;162217.16;1713797;81;21357;-76
2021/03/16 10:55:38;;;;;;;14.68;6.90;;;;;;;41.73;21.42;162210.47;1711102;81;21902;-76
2021/03/16 10:58:10;;;;;;;11.55;6.62;;;;;;;41.83;21.48;162237.31;1712022;81;21355;-75
2021/03/16 11:00:43;;;;;;;9.50;6.95;;;;;;;42.00;21.47;162284.38;1711572;81;21378;-76
2021/03/16 11:03:17;;;;;;;14.73;7.33;;;;;;;41.90;21.10;162257.47;1680211;83;21205;-77
2021/03/16 11:05:50;;;;;;;11.00;6.58;;;;;;;41.29;21.26;162092.28;1658235;85;21362;-78
2021/03/16 11:08:24;;;;;;;11.97;6.65;;;;;;;40.31;21.74;161829.06;1653647;84;22067;-79
2021/03/16 11:10:58;;;;;;;16.93;7.85;;;;;;;39.87;22.13;161708.28;1679599;83;21315;-82
2021/03/16 11:13:30;;;;;;;8.40;6.17;;;;;;;39.70;22.37;161662.72;1714651;81;21198;-83
2021/03/16 11:16:03;;;;;;;11.35;5.87;;;;;;;40.48;22.29;161873.38;1714117;81;21352;-83
2021/03/16 11:18:38;;;;;;;13.28;6.22;;;;;;;41.80;21.71;162230.61;1710187;81;21176;-84
2021/03/16 11:21:11;;;;;;;10.53;6.70;;;;;;;43.04;21.14;162566.59;1714277;82;21182;-83
2021/03/16 11:23:43;;;;;;;10.85;6.08;;;;;;;43.95;20.92;162812.75;1714415;82;21197;-82
2021/03/16 11:26:17;;;;;;;10.30;7.03;;;;;;;44.57;20.47;162978.22;1690029;83;21236;-82
2021/03/16 11:28:50;;;;;;;15.58;7.60;;;;;;;44.75;19.83;163028.03;1666782;85;21990;-80
2021/03/16 11:31:22;;;;;;;9.43;6.12;;;;;;;44.70;20.17;163013.23;1661300;83;21232;-84
2021/03/16 11:34:14;;;;;;;10.48;6.10;;;;;;;44.33;20.08;162914.97;1660985;83;21951;-86
2021/03/16 11:37:05;;;;;;;13.53;7.12;;;;;;;43.79;20.18;162766.97;1663797;83;21873;-84
2021/03/16 11:39:55;;;;;;;13.32;7.22;;;;;;;43.59;20.27;162713.22;1665143;83;21219;-83
2021/03/16 11:42:45;;;;;;;;;;;;;;;42.81;20.60;162503.45;1666157;83;21220;-82
2021/03/16 11:45:36;;;;;;;14.45;7.58;;;;;;;42.56;20.81;162434.84;1664156;83;20331;-77
2021/03/16 11:48:26;;;;;;;;;;;;;;;42.43;21.00;162399.92;1664462;83;21856;-81
2021/03/16 11:51:17;;;;;;;12.20;7.65;;;;;;;42.12;20.96;162317.97;1681181;83;20215;-80
2021/03/16 11:54:07;;;;;;;12.03;6.40;;;;;;;42.15;21.13;162324.67;1685606;85;21358;-78
2021/03/16 11:56:58;;;;;;;13.60;6.12;;;;;;;42.72;21.00;162479.19;1661480;83;21236;-76
2021/03/16 11:59:48;;;;;;;13.98;7.10;;;;;;;43.42;20.51;162668.80;1661712;83;21354;-77
2021/03/16 12:02:38;;;;;;;12.80;7.43;;;;;;;44.04;20.47;162836.94;1670449;83;21441;-78
2021/03/16 12:05:28;;;;;;;10.50;6.95;;;;;;;44.42;20.14;162939.22;1663800;83;21377;-78
2021/03/16 12:08:20;;;;;;;13.62;6.75;;;;;;;44.42;19.97;162939.22;1667794;83;21357;-80
2021/03/16 12:11:10;;;;;;;10.30;6.40;;;;;;;44.23;19.88;162886.70;1676530;83;21334;-77
2021/03/16 12:14:01;;;;;;;11.73;6.83;;;;;;;44.04;20.01;162835.63;1684082;85;21337;-79
2021/03/16 12:16:50;;;;;;;8.73;6.12;;;;;;;43.44;20.02;162672.81;1686194;85;21330;-76
2021/03/16 12:19:41;;;;;;;10.23;6.42;;;;;;;42.78;20.70;162494.02;1688449;85;21878;-79
2021/03/16 12:22:32;;;;;;;11.30;5.80;;;;;;;42.43;20.80;162401.28;1728782;82;21209;-80
2021/03/16 12:25:22;;;;;;;8.37;5.43;;;;;;;42.17;20.87;162331.38;1740925;82;21163;-80
2021/03/16 12:28:12;;;;;;;15.80;6.30;;;;;;;41.84;21.17;162241.38;1730152;82;21652;-80
2021/03/16 12:31:02;;;;;;;9.78;5.85;;;;;;;40.92;21.54;161992.89;1708580;84;21210;-80
2021/03/16 12:33:52;;;;;;;21.07;6.30;;;;;;;40.44;21.91;161864.00;1674505;86;21882;-80
2021/03/16 12:36:42;;;;;;;15.20;5.92;;;;;;;40.20;22.15;161799.55;1645254;87;21302;-80
2021/03/16 12:39:31;;;;;;;11.48;6.12;;;;;;;39.90;22.30;161716.34;1661972;85;21334;-81
2021/03/16 12:42:22;;;;;;;14.07;6.83;;;;;;;39.63;22.44;161645.28;1730436;82;21155;-80
2021/03/16 12:45:12;;;;;;;12.25;5.83;;;;;;;39.31;22.87;161559.38;1748283;82;21325;-80